首页
METAR-TAF:

METAR-TAF

机场 :

埃尔多拉多国际机场

波哥大, 哥伦比亚

纬度: 04-43N, 经度: 074-09W, 海拔: 2547米

当前天气观测

该预报发布于56分钟前的18:00 UTC
风速10节,风向东南,在之间变化
温度 18°C
湿度 52%
气压 1027 hPa
能见度10公里或以上
多云层高于2000英尺

METAR: SKBO 231800Z 13010KT 080V180 9999 BKN020 18/08 A3033

时间: 13:56 (18:56 UTC)

预报

该预报发布于1小时和56分钟前的17:00 UTC
预报有效从23日的 18点(UTC)到 24日的 18点(UTC)
风速7节,风向
能见度10公里或以上
多云层高于2000英尺
短暂存在
从 23日的 18点(UTC)到 23日的 20点(UTC)
附近有阵雨
成为
从 23日的 19点(UTC)到 23日的 21点(UTC)
风速2节,风向多变
几率 30% :
短暂存在
从 23日的 21点(UTC)到 23日的 23点(UTC)
能見度: 7000
散云层高于1700英尺, 积雨云.
雷暴
短暂存在
从 24日的 09点(UTC)到 24日的 13点(UTC)
能見度: 8000
散云层高于1500英尺

TAF: SKBO 231700Z 2318/2418 09007KT 9999 BKN020 TEMPO 2318/2320 VCSH BECMG 2319/2321 VRB02KT PROB30 TEMPO 2321/2323 7000 TS SCT017CB TEMPO 2409/2413 8000 SCT015 TX20/2319Z TN09/2411Z

超过4000个机场的气象观测和天气预报(METAR&TAF报告)。

可查询的气象台以黄色和红色小点在地图上表示。

将鼠标移到小点上方,可查看气象台名称。

然后点击查看天气观测和预报。

如需切换地图:点击带黑十字的绿色按钮放大地图;点击带横线的绿色按钮缩小地图;或者点击绿色箭头查看邻近地区的地图。


METAR-TAF: